Weather Data

Pearl Creek Farm: 8878 N Farm Road 75, Walnut Grove MO 65770

<== Previous Day (Tuesday 25 Apr 2017) | Next Day (Thursday 27 Apr 2017) ==>

Summary Precipitation Data For Wednesday 26 April 2017

ElementValueUnits
Precipitation0.69"
NotesThunderstorms in the early morning hours. Raining lightly now.
SourcePearl Creek Farm

Summary Temperature Data For Wednesday 26 April 2017

ElementValueUnits
High Temperature63 oF
Low Temperature45 oF
Average Temperature52 oF
High Humidity97 %
Low Humidity78 %
Average Humidity94 %
SourceSpringfield-Branson National Airport (SGF)

Detail Temperature Data For Wednesday 26 April 2017

Date / TimeTemp (F)RH (%)Dew Pt (F)Report Date / TimeSource
2017-04-26 00:52:00 63 78 56.0 2017-12-29 17:00:26.17417 Springfield-Branson National Airport (SGF)
2017-04-26 01:52:00 58 97 57.0 2017-12-29 17:00:26.17417 Springfield-Branson National Airport (SGF)
2017-04-26 05:52:00 59 93 57.0 2017-12-29 17:00:26.17417 Springfield-Branson National Airport (SGF)
2017-04-26 06:52:00 59 93 57.0 2017-12-29 17:00:26.17417 Springfield-Branson National Airport (SGF)
2017-04-26 07:52:00 59 96 58.0 2017-12-29 17:00:26.17417 Springfield-Branson National Airport (SGF)
2017-04-26 08:52:00 54 97 53.0 2017-12-29 17:00:26.17417 Springfield-Branson National Airport (SGF)
2017-04-26 09:52:00 53 96 52.0 2017-12-29 17:00:26.17417 Springfield-Branson National Airport (SGF)
2017-04-26 10:52:00 51 96 50.0 2017-12-29 17:00:26.17417 Springfield-Branson National Airport (SGF)
2017-04-26 11:52:00 50 96 49.0 2017-12-29 17:00:26.17417 Springfield-Branson National Airport (SGF)
2017-04-26 12:52:00 49 97 48.0 2017-12-29 17:00:26.17417 Springfield-Branson National Airport (SGF)
2017-04-26 14:52:00 48 96 47.0 2017-12-29 17:00:26.17417 Springfield-Branson National Airport (SGF)
2017-04-26 15:52:00 48 96 47.0 2017-12-29 17:00:26.17417 Springfield-Branson National Airport (SGF)
2017-04-26 16:52:00 47 93 45.0 2017-12-29 17:00:26.17417 Springfield-Branson National Airport (SGF)
2017-04-26 17:52:00 45 93 43.0 2017-12-29 17:00:26.17417 Springfield-Branson National Airport (SGF)
2017-04-26 21:52:00 45 93 43.0 2017-12-29 17:00:26.17417 Springfield-Branson National Airport (SGF)
2017-04-26 02:52:00 59 93 57.0 2017-12-29 17:00:26.17417 Springfield-Branson National Airport (SGF)
2017-04-26 03:52:00 57 96 56.0 2017-12-29 17:00:26.17417 Springfield-Branson National Airport (SGF)
2017-04-26 04:52:00 58 97 57.0 2017-12-29 17:00:26.17417 Springfield-Branson National Airport (SGF)
2017-04-26 13:52:00 49 93 47.0 2017-12-29 17:00:26.17417 Springfield-Branson National Airport (SGF)
2017-04-26 18:52:00 45 93 43.0 2017-12-29 17:00:26.17417 Springfield-Branson National Airport (SGF)
2017-04-26 19:52:00 45 93 43.0 2017-12-29 17:00:26.17417 Springfield-Branson National Airport (SGF)
2017-04-26 20:52:00 45 93 43.0 2017-12-29 17:00:26.17417 Springfield-Branson National Airport (SGF)
2017-04-26 22:52:00 45 93 43.0 2017-12-29 17:00:26.17417 Springfield-Branson National Airport (SGF)
2017-04-26 23:52:00 45 93 43.0 2017-12-29 17:00:26.17417 Springfield-Branson National Airport (SGF)

A total of 24 rows are displayed.